Time;durP1;ratioP1;P1;durP2;ratioP2;P2;SDS_P1;SDS_P2;PMS_P1;PMS_P2;Temp;Humidity;BMP_temperature;BMP_pressure;BME280_temperature;BME280_humidity;BME280_pressure;Samples;Min_cycle;Max_cycle;Signal;HPM_P1;HPM_P2
2021/04/28 00:00:22;;;;;;;27.67;19.10;;;;;;;0.04;79.92;100449.89;1812647;78;21060;-77
2021/04/28 00:02:50;;;;;;;26.87;18.00;;;;;;;0.01;79.96;100451.31;1799048;78;22500;-77
2021/04/28 00:05:17;;;;;;;25.25;18.15;;;;;;;0.01;79.99;100449.17;1825877;78;21057;-77
2021/04/28 00:07:46;;;;;;;28.15;19.67;;;;;;;0.00;79.97;100452.22;1826177;78;21055;-77
2021/04/28 00:10:19;;;;;;;27.85;19.07;;;;;;;-0.02;79.96;100447.50;1814247;78;21507;-76
2021/04/28 00:12:47;;;;;;;20.17;14.80;;;;;;;-0.05;80.03;100448.47;1802203;78;21082;-76
2021/04/28 00:15:22;;;;;;;24.63;18.27;;;;;;;-0.07;80.06;100448.13;1795055;77;21895;-77
2021/04/28 00:17:51;;;;;;;24.60;18.12;;;;;;;-0.07;80.10;100456.77;1816564;77;21118;-77
2021/04/28 00:20:19;;;;;;;36.50;17.25;;;;;;;-0.08;80.09;100450.33;1826070;78;21173;-77
2021/04/28 00:22:47;;;;;;;29.77;18.80;;;;;;;-0.09;80.10;100449.94;1823991;78;21326;-77
2021/04/28 00:25:22;;;;;;;36.38;18.40;;;;;;;-0.10;80.12;100451.66;1819167;78;21058;-76
2021/04/28 00:27:50;;;;;;;27.10;18.20;;;;;;;-0.12;80.14;100448.27;1798479;78;22064;-76
2021/04/28 00:30:19;;;;;;;62.38;18.27;;;;;;;-0.13;80.14;100450.47;1815422;78;21185;-76
2021/04/28 00:32:46;;;;;;;27.17;17.90;;;;;;;-0.15;80.18;100445.79;1826354;78;21078;-76
2021/04/28 00:35:15;;;;;;;71.90;19.50;;;;;;;-0.15;80.17;100453.58;1812425;78;21501;-76
2021/04/28 00:37:42;;;;;;;39.73;17.62;;;;;;;-0.17;80.19;100450.19;1810083;78;21123;-77
2021/04/28 00:40:14;;;;;;;36.75;19.23;;;;;;;-0.19;80.22;100447.23;1811431;78;22443;-77
2021/04/28 00:42:43;;;;;;;37.58;18.17;;;;;;;-0.21;80.24;100453.77;1818918;78;21602;-78
2021/04/28 00:45:13;;;;;;;35.45;19.00;;;;;;;-0.22;80.24;100445.59;1812331;78;21058;-78
2021/04/28 00:47:41;;;;;;;39.92;19.70;;;;;;;-0.22;80.25;100448.64;1798035;78;21661;-78
2021/04/28 00:50:13;;;;;;;69.37;20.82;;;;;;;-0.25;80.26;100453.49;1807899;78;21125;-77
2021/04/28 00:52:40;;;;;;;41.37;18.98;;;;;;;-0.27;80.25;100459.19;1801499;78;21886;-77
2021/04/28 00:55:10;;;;;;;97.02;21.40;;;;;;;-0.32;80.24;100461.08;1821785;78;21212;-78
2021/04/28 00:57:38;;;;;;;35.75;19.50;;;;;;;-0.36;80.26;100463.39;1819846;78;21160;-77
2021/04/28 01:00:10;;;;;;;35.08;19.90;;;;;;;-0.41;80.25;100467.42;1817501;78;21736;-76
2021/04/28 01:02:38;;;;;;;52.85;19.05;;;;;;;-0.47;80.31;100468.09;1781779;80;21177;-75
2021/04/28 01:05:07;;;;;;;51.90;18.42;;;;;;;-0.55;80.33;100461.84;1789881;80;22522;-75
2021/04/28 01:07:34;;;;;;;65.72;20.23;;;;;;;-0.61;80.37;100465.47;1767239;78;21083;-76
2021/04/28 01:10:09;;;;;;;52.25;19.23;;;;;;;-0.64;80.39;100464.73;1794752;78;21461;-73
2021/04/28 01:12:38;;;;;;;45.78;22.42;;;;;;;-0.64;80.48;100462.98;1794383;78;21351;-77
2021/04/28 01:15:13;;;;;;;41.00;24.47;;;;;;;-0.64;80.49;100462.14;1788612;78;21055;-79
2021/04/28 01:17:43;;;;;;;39.98;23.15;;;;;;;-0.65;80.51;100466.48;1785720;78;23030;-79
2021/04/28 01:20:14;;;;;;;73.20;24.40;;;;;;;-0.65;80.50;100466.93;1756010;80;21143;-79
2021/04/28 01:22:43;;;;;;;47.03;24.15;;;;;;;-0.66;80.50;100463.94;1789669;80;21111;-79
2021/04/28 01:25:15;;;;;;;43.78;26.75;;;;;;;-0.68;80.47;100464.41;1785145;78;21335;-79
2021/04/28 01:27:52;;;;;;;48.20;26.40;;;;;;;-0.72;80.45;100464.97;1787579;80;21111;-80
2021/04/28 01:30:21;;;;;;;57.95;27.13;;;;;;;-0.75;80.44;100467.67;1771002;80;22079;-79
2021/04/28 01:32:49;;;;;;;58.95;27.50;;;;;;;-0.81;80.49;100469.14;1788185;78;21107;-79
2021/04/28 01:35:18;;;;;;;64.72;25.12;;;;;;;-0.88;80.50;100474.11;1760298;80;21126;-78
2021/04/28 01:37:47;;;;;;;45.98;29.57;;;;;;;-0.91;80.55;100471.63;1778736;76;21107;-79
2021/04/28 01:40:17;;;;;;;43.48;29.18;;;;;;;-0.92;80.63;100474.66;1789155;80;21079;-79
2021/04/28 01:42:46;;;;;;;42.48;28.38;;;;;;;-0.92;80.69;100473.82;1788818;80;22071;-79
2021/04/28 01:45:15;;;;;;;50.10;31.90;;;;;;;-0.90;80.72;100475.91;1757747;80;21067;-79
2021/04/28 01:47:43;;;;;;;45.60;30.20;;;;;;;-0.89;80.70;100475.02;1788921;80;21083;-77
2021/04/28 01:50:13;;;;;;;54.27;33.90;;;;;;;-0.89;80.69;100474.56;1742996;80;21632;-77
2021/04/28 01:52:42;;;;;;;58.55;36.20;;;;;;;-0.90;80.70;100472.87;1761334;80;21110;-78
2021/04/28 01:55:11;;;;;;;56.18;35.75;;;;;;;-0.90;80.73;100476.76;1795492;80;22061;-78
2021/04/28 01:57:41;;;;;;;57.25;36.20;;;;;;;-0.91;80.74;100476.81;1769241;80;21129;-77
2021/04/28 02:00:14;;;;;;;53.80;34.48;;;;;;;-0.91;80.75;100472.92;1767627;78;21085;-80
2021/04/28 02:02:52;;;;;;;54.40;34.50;;;;;;;-0.94;80.76;100472.58;1780412;80;21161;-78
2021/04/28 02:05:22;;;;;;;52.73;35.28;;;;;;;-0.93;80.83;100480.75;1756030;81;21099;-80
2021/04/28 02:07:50;;;;;;;50.63;34.63;;;;;;;-0.91;80.83;100480.70;1750591;81;22033;-77
2021/04/28 02:10:18;;;;;;;50.12;33.33;;;;;;;-0.89;80.83;100489.27;1753605;81;21166;-78
2021/04/28 02:12:48;;;;;;;57.58;36.83;;;;;;;-0.88;80.80;100485.78;1766430;81;21095;-76
2021/04/28 02:15:19;;;;;;;48.98;32.80;;;;;;;-0.89;80.75;100487.97;1781295;80;21616;-77
2021/04/28 02:17:54;;;;;;;67.30;32.73;;;;;;;-0.90;80.74;100493.61;1765185;80;21158;-79
2021/04/28 02:20:22;;;;;;;71.05;32.10;;;;;;;-0.94;80.75;100492.02;1770368;80;22063;-77
2021/04/28 02:22:52;;;;;;;55.55;32.40;;;;;;;-0.97;80.74;100495.13;1746626;80;21142;-77
2021/04/28 02:25:21;;;;;;;58.02;30.15;;;;;;;-1.00;80.80;100499.13;1744341;81;21141;-78
2021/04/28 02:28:08;;;;;;;50.07;32.73;;;;;;;-0.97;80.81;100495.98;1791406;79;38834;-77
2021/04/28 02:30:37;;;;;;;38.95;26.25;;;;;;;-0.95;80.75;100500.70;1752693;80;21587;-78
2021/04/28 02:33:05;;;;;;;37.55;25.45;;;;;;;-0.91;80.66;100507.92;1739858;80;23353;-78
2021/04/28 02:35:45;;;;;;;32.05;23.80;;;;;;;-0.91;80.65;100504.03;1860924;76;29017;-78
2021/04/28 02:38:45;;;;;;;32.13;23.62;;;;;;;-0.98;80.61;100510.29;1849356;77;21458;-77
2021/04/28 02:41:14;;;;;;;31.70;23.50;;;;;;;-1.04;80.59;100508.75;1784275;80;22052;-76
2021/04/28 02:43:43;;;;;;;31.65;23.35;;;;;;;-1.06;80.58;100501.89;1791613;79;21073;-78
2021/04/28 02:46:14;;;;;;;32.17;22.75;;;;;;;-1.09;80.61;100505.42;1793690;78;21141;-77
2021/04/28 02:48:44;;;;;;;31.77;21.40;;;;;;;-1.11;80.62;100504.63;1793524;78;21057;-78
2021/04/28 02:51:35;;;;;;;27.50;21.65;;;;;;;-1.09;80.62;100504.58;1863733;76;29012;-77
2021/04/28 02:54:06;;;;;;;28.95;21.30;;;;;;;-1.18;80.59;100505.25;1803343;77;21052;-77
2021/04/28 02:56:35;;;;;;;34.08;23.73;;;;;;;-1.22;80.59;100504.95;1831847;78;22959;-77
2021/04/28 02:59:03;;;;;;;36.20;25.70;;;;;;;-1.25;80.55;100507.64;1821957;78;21072;-77
2021/04/28 03:01:31;;;;;;;40.25;26.17;;;;;;;-1.28;80.59;100502.52;1826576;78;21056;-76
2021/04/28 03:04:00;;;;;;;38.85;27.25;;;;;;;-1.29;80.64;100502.56;1804288;78;21198;-76
2021/04/28 03:06:29;;;;;;;47.95;31.15;;;;;;;-1.29;80.68;100509.05;1815463;78;21123;-76
2021/04/28 03:08:58;;;;;;;44.75;29.80;;;;;;;-1.27;80.75;100511.98;1828655;77;22607;-78
2021/04/28 03:11:27;;;;;;;50.05;31.57;;;;;;;-1.22;80.81;100510.58;1813489;78;21330;-77
2021/04/28 03:13:57;;;;;;;46.23;32.00;;;;;;;-1.13;80.88;100517.23;1825731;78;21167;-77
2021/04/28 03:16:25;;;;;;;45.15;31.27;;;;;;;-1.10;80.85;100515.84;1813085;78;21475;-76
2021/04/28 03:18:53;;;;;;;45.08;30.02;;;;;;;-1.08;80.82;100522.67;1784142;78;21059;-77
2021/04/28 03:21:20;;;;;;;44.10;29.10;;;;;;;-1.09;80.80;100518.39;1823044;78;22793;-77
2021/04/28 03:23:48;;;;;;;49.67;32.60;;;;;;;-1.07;80.80;100520.92;1808313;78;21115;-77
2021/04/28 03:26:16;;;;;;;48.48;31.85;;;;;;;-1.05;80.83;100525.20;1791951;78;21171;-73
2021/04/28 03:28:44;;;;;;;46.58;33.00;;;;;;;-1.00;80.92;100525.05;1812506;78;21044;-78
2021/04/28 03:31:12;;;;;;;53.78;33.95;;;;;;;-0.96;80.98;100526.22;1814785;78;21036;-79
2021/04/28 03:33:40;;;;;;;49.35;32.65;;;;;;;-0.91;81.00;100536.45;1811850;77;22033;-78
2021/04/28 03:36:09;;;;;;;45.00;31.82;;;;;;;-0.85;81.02;100536.27;1818082;78;21151;-79
2021/04/28 03:38:53;;;;;;;49.23;31.70;;;;;;;-0.76;81.02;100535.15;1768665;78;28982;-77
2021/04/28 03:41:23;;;;;;;44.65;30.40;;;;;;;-0.78;81.00;100538.21;1751686;81;21122;-77
2021/04/28 03:43:51;;;;;;;45.33;31.07;;;;;;;-0.75;80.99;100537.69;1710447;82;22072;-78
2021/04/28 03:46:21;;;;;;;49.13;32.08;;;;;;;-0.71;80.99;100546.22;1730468;81;21639;-77
2021/04/28 03:48:51;;;;;;;48.90;32.93;;;;;;;-0.67;80.99;100546.55;1733523;81;21553;-77
2021/04/28 03:51:20;;;;;;;47.83;33.85;;;;;;;-0.64;80.99;100555.07;1723025;82;21207;-77
2021/04/28 03:54:07;;;;;;;49.50;34.53;;;;;;;-0.60;80.98;100557.95;1740328;82;21068;-79
2021/04/28 03:56:35;;;;;;;43.38;32.30;;;;;;;-0.53;81.01;100555.19;1739195;82;22020;-77
2021/04/28 03:59:04;;;;;;;39.75;27.20;;;;;;;-0.49;81.05;100565.86;1721681;82;21114;-78
2021/04/28 04:01:32;;;;;;;31.02;22.37;;;;;;;-0.48;81.10;100566.25;1725522;82;21225;-78
2021/04/28 04:04:02;;;;;;;31.27;22.67;;;;;;;-0.44;81.17;100566.13;1726067;81;21124;-77
2021/04/28 04:06:49;;;;;;;35.43;25.40;;;;;;;-0.40;81.26;100565.58;1725866;82;21193;-77
2021/04/28 04:09:22;;;;;;;36.65;25.17;;;;;;;-0.36;81.34;100562.00;1738892;80;22052;-76
2021/04/28 04:11:52;;;;;;;30.75;20.85;;;;;;;-0.32;81.40;100562.30;1733706;82;21167;-76
2021/04/28 04:14:27;;;;;;;28.12;20.23;;;;;;;-0.27;81.45;100563.02;1741404;82;21069;-79
2021/04/28 04:16:55;;;;;;;33.90;23.57;;;;;;;-0.23;81.49;100563.30;1741643;82;21089;-75
2021/04/28 04:19:23;;;;;;;30.70;22.10;;;;;;;-0.17;81.54;100566.16;1732923;80;21156;-76
2021/04/28 04:22:16;;;;;;;30.75;22.17;;;;;;;-0.07;81.56;100568.86;1868156;76;29242;-78
2021/04/28 04:24:45;;;;;;;27.50;19.82;;;;;;;-0.06;81.61;100566.20;1772348;79;21347;-79
2021/04/28 04:27:15;;;;;;;26.15;19.40;;;;;;;0.02;81.63;100571.61;1761696;81;22059;-78
2021/04/28 04:29:53;;;;;;;23.77;17.48;;;;;;;0.08;81.66;100568.78;1842887;77;21061;-79
2021/04/28 04:32:31;;;;;;;26.93;18.85;;;;;;;0.18;81.72;100571.02;1850627;76;29100;-78
2021/04/28 04:35:17;;;;;;;24.95;19.73;;;;;;;0.21;81.73;100573.99;1816745;77;21117;-79
2021/04/28 04:38:03;;;;;;;25.20;18.52;;;;;;;0.32;81.74;100579.67;1801499;79;22013;-75
2021/04/28 04:40:41;;;;;;;30.37;20.72;;;;;;;0.42;81.76;100578.91;1798585;79;21097;-76
2021/04/28 04:43:27;;;;;;;27.60;20.32;;;;;;;0.52;81.79;100578.53;1801570;77;21544;-75
2021/04/28 04:46:11;;;;;;;27.82;19.15;;;;;;;0.69;81.84;100577.95;1853067;76;29522;-73
2021/04/28 04:48:39;;;;;;;22.07;16.70;;;;;;;0.75;81.89;100582.91;1810955;78;21182;-72
2021/04/28 04:51:07;;;;;;;18.77;16.27;;;;;;;0.86;81.89;100583.82;1822253;77;22039;-74
2021/04/28 04:53:34;;;;;;;22.93;17.92;;;;;;;0.90;81.89;100589.78;1841972;77;21563;-75
2021/04/28 04:56:02;;;;;;;23.05;17.85;;;;;;;0.97;81.93;100594.70;1819425;78;21099;-75
2021/04/28 04:58:30;;;;;;;20.65;16.70;;;;;;;1.04;81.95;100601.36;1830066;78;21645;-76
2021/04/28 05:00:59;;;;;;;20.00;15.63;;;;;;;1.12;81.96;100601.09;1819850;77;21053;-75
2021/04/28 05:03:26;;;;;;;20.45;16.37;;;;;;;1.22;81.98;100605.50;1825117;78;21866;-76
2021/04/28 05:05:54;;;;;;;20.85;17.80;;;;;;;1.28;82.00;100614.39;1808441;78;21179;-76
2021/04/28 05:08:21;;;;;;;19.62;15.90;;;;;;;1.35;82.00;100614.53;1808635;78;21064;-73
2021/04/28 05:10:49;;;;;;;22.70;17.02;;;;;;;1.42;82.00;100618.16;1808357;78;21052;-74
2021/04/28 05:13:17;;;;;;;20.27;15.00;;;;;;;1.49;82.02;100616.17;1808648;78;21099;-73
2021/04/28 05:15:45;;;;;;;24.35;13.75;;;;;;;1.60;82.07;100624.88;1824126;77;22054;-78
2021/04/28 05:18:12;;;;;;;19.02;14.60;;;;;;;1.71;82.08;100625.30;1818222;77;21060;-73
2021/04/28 05:20:40;;;;;;;18.05;13.50;;;;;;;1.81;82.07;100625.79;1841416;78;21063;-72
2021/04/28 05:23:08;;;;;;;18.82;14.07;;;;;;;1.90;82.02;100630.64;1827193;78;21051;-76
2021/04/28 05:25:46;;;;;;;17.37;13.28;;;;;;;1.99;82.03;100633.73;1816685;78;21139;-75
2021/04/28 05:28:14;;;;;;;15.90;11.83;;;;;;;2.11;81.98;100636.28;1763780;79;22522;-76
2021/04/28 05:30:41;;;;;;;15.98;12.40;;;;;;;2.21;81.88;100640.22;1774558;78;21101;-79
2021/04/28 05:33:09;;;;;;;18.20;12.78;;;;;;;2.30;81.83;100642.45;1745562;81;21057;-79
2021/04/28 05:35:36;;;;;;;16.02;12.30;;;;;;;2.39;81.79;100642.53;1755464;78;21524;-77
2021/04/28 05:38:04;;;;;;;13.25;11.83;;;;;;;2.49;81.72;100646.91;1769759;80;21109;-77
2021/04/28 05:40:32;;;;;;;15.70;12.28;;;;;;;2.59;81.71;100651.66;1762329;80;22133;-77
2021/04/28 05:43:00;;;;;;;17.32;10.23;;;;;;;2.72;81.70;100650.72;1756609;80;21133;-76
2021/04/28 05:45:29;;;;;;;17.27;12.90;;;;;;;2.85;81.62;100657.09;1742059;81;21648;-76
2021/04/28 05:47:56;;;;;;;17.05;13.10;;;;;;;2.98;81.42;100659.16;1727322;81;21183;-77
2021/04/28 05:50:24;;;;;;;22.00;14.63;;;;;;;3.09;81.27;100658.27;1726432;81;21637;-75
2021/04/28 05:52:51;;;;;;;18.90;13.55;;;;;;;3.20;81.17;100657.33;1732133;81;22072;-75
2021/04/28 05:55:19;;;;;;;20.00;14.68;;;;;;;3.30;80.95;100659.06;1749400;81;21676;-76
2021/04/28 05:57:46;;;;;;;21.17;14.18;;;;;;;3.39;80.90;100659.50;1752321;80;21436;-75
2021/04/28 06:00:15;;;;;;;17.35;13.20;;;;;;;3.52;80.81;100655.02;1754449;80;21214;-80
2021/04/28 06:02:42;;;;;;;18.60;13.62;;;;;;;3.63;80.61;100663.20;1744174;81;21146;-78
2021/04/28 06:05:11;;;;;;;16.23;11.90;;;;;;;3.73;80.44;100668.39;1747679;80;22779;-75
2021/04/28 06:07:39;;;;;;;17.70;12.55;;;;;;;3.84;80.27;100667.88;1751349;80;21631;-74
2021/04/28 06:10:09;;;;;;;16.48;12.28;;;;;;;3.94;80.08;100676.52;1725341;81;21211;-74
2021/04/28 06:12:41;;;;;;;16.62;11.63;;;;;;;4.05;79.93;100677.32;1733653;81;21211;-75
2021/04/28 06:15:11;;;;;;;15.28;11.30;;;;;;;4.17;79.53;100675.45;1745125;81;21141;-75
2021/04/28 06:17:40;;;;;;;16.15;11.35;;;;;;;4.23;79.07;100679.52;1726027;83;22134;-74
2021/04/28 06:34:52;;;;;;;11.10;8.53;;;;;;;5.32;75.47;100678.81;1779051;80;29197;-76
2021/04/28 06:37:20;;;;;;;11.55;8.35;;;;;;;5.43;74.43;100683.02;1755936;81;21618;-73
2021/04/28 06:39:48;;;;;;;12.28;7.72;;;;;;;5.54;74.03;100685.06;1755262;81;22133;-73
2021/04/28 06:42:15;;;;;;;13.95;7.55;;;;;;;5.65;73.35;100678.78;1734450;81;21188;-72
2021/04/28 06:44:43;;;;;;;11.22;7.97;;;;;;;5.74;72.62;100680.44;1742016;81;21184;-72
2021/04/28 06:47:11;;;;;;;9.70;7.15;;;;;;;5.85;72.29;100682.94;1723517;83;21469;-72
2021/04/28 06:49:39;;;;;;;9.65;6.42;;;;;;;5.95;71.44;100684.15;1723517;83;21654;-72
2021/04/28 06:52:07;;;;;;;10.78;5.87;;;;;;;6.03;70.85;100681.95;1727051;81;22567;-70
2021/04/28 06:54:34;;;;;;;9.38;4.78;;;;;;;6.10;69.84;100685.94;1741064;80;21528;-72
2021/04/28 06:57:02;;;;;;;9.63;5.60;;;;;;;6.20;68.68;100687.58;1742895;81;21474;-70
2021/04/28 06:59:31;;;;;;;8.48;4.95;;;;;;;6.27;67.87;100697.64;1699077;83;21188;-71
2021/04/28 07:01:59;;;;;;;7.53;3.62;;;;;;;6.40;67.10;100691.69;1701582;84;21145;-72
2021/04/28 07:04:27;;;;;;;5.37;3.60;;;;;;;6.52;65.98;100693.14;1753732;81;22064;-73
2021/04/28 07:06:55;;;;;;;7.45;4.00;;;;;;;6.63;63.91;100695.14;1743368;81;21209;-75
2021/04/28 07:09:22;;;;;;;11.63;3.55;;;;;;;6.80;63.39;100699.42;1751013;81;21188;-71
2021/04/28 07:11:50;;;;;;;5.10;3.10;;;;;;;6.91;61.60;100703.56;1735833;81;21639;-72
2021/04/28 07:14:19;;;;;;;6.62;3.90;;;;;;;7.00;61.16;100702.18;1724764;81;21184;-74
2021/04/28 07:16:46;;;;;;;7.33;4.10;;;;;;;7.04;60.59;100707.14;1757445;81;22063;-75
2021/04/28 07:19:13;;;;;;;10.50;4.70;;;;;;;7.07;60.01;100707.45;1728297;81;21614;-72
2021/04/28 07:21:41;;;;;;;8.43;4.40;;;;;;;7.11;59.63;100699.75;1755015;81;22061;-73
2021/04/28 07:24:08;;;;;;;9.03;4.60;;;;;;;7.09;59.99;100710.83;1735747;81;21174;-74
2021/04/28 07:26:36;;;;;;;6.85;4.20;;;;;;;7.16;60.54;100704.28;1755647;81;21203;-73
2021/04/28 07:29:03;;;;;;;5.37;3.30;;;;;;;7.30;60.99;100710.84;1727839;81;23467;-74
2021/04/28 07:31:31;;;;;;;8.00;3.60;;;;;;;7.48;60.08;100708.05;1758584;81;21153;-74
2021/04/28 07:33:59;;;;;;;4.62;2.87;;;;;;;7.62;59.36;100704.09;1731835;81;21182;-75
2021/04/28 07:36:27;;;;;;;5.75;3.00;;;;;;;7.72;56.26;100702.14;1734705;81;21129;-73
2021/04/28 07:38:56;;;;;;;5.80;3.10;;;;;;;7.72;56.58;100698.19;1720336;83;21165;-73
2021/04/28 07:41:25;;;;;;;5.55;2.90;;;;;;;7.84;56.57;100700.98;1695937;84;23389;-74
2021/04/28 07:43:52;;;;;;;3.65;2.33;;;;;;;7.96;56.16;100701.05;1710576;83;21477;-72
2021/04/28 07:46:19;;;;;;;6.58;2.17;;;;;;;8.11;55.20;100707.14;1711146;83;21160;-71
2021/04/28 07:48:47;;;;;;;4.10;3.00;;;;;;;8.17;53.56;100704.56;1759224;81;21517;-72
2021/04/28 07:51:14;;;;;;;3.55;2.80;;;;;;;8.32;55.41;100703.59;1757221;81;21137;-70
2021/04/28 07:53:42;;;;;;;3.60;2.00;;;;;;;8.48;55.37;100701.66;1729656;81;23186;-70
2021/04/28 07:56:10;;;;;;;2.00;0.90;;;;;;;8.61;51.65;100703.04;1712219;82;21156;-70
2021/04/28 07:58:38;;;;;;;1.30;1.00;;;;;;;8.67;49.51;100699.14;1702203;83;21631;-76
2021/04/28 08:01:06;;;;;;;3.67;1.40;;;;;;;8.77;45.41;100698.90;1746651;81;21209;-72
2021/04/28 08:03:33;;;;;;;3.17;1.27;;;;;;;8.70;45.25;100695.01;1722731;81;21156;-72
2021/04/28 08:06:00;;;;;;;1.70;1.20;;;;;;;8.73;46.76;100696.95;1758935;81;22578;-71
2021/04/28 08:08:28;;;;;;;1.77;1.47;;;;;;;8.91;47.50;100697.99;1759333;81;21081;-73
2021/04/28 08:10:56;;;;;;;4.50;1.77;;;;;;;9.03;46.29;100697.16;1745768;81;22157;-69
2021/04/28 08:13:24;;;;;;;4.05;1.72;;;;;;;9.08;45.81;100702.97;1733227;81;21520;-72
2021/04/28 08:15:51;;;;;;;4.25;1.60;;;;;;;9.06;46.35;100701.73;1752599;81;21170;-69
2021/04/28 08:18:19;;;;;;;4.12;1.60;;;;;;;9.00;45.73;100700.85;1744692;81;22075;-74
2021/04/28 08:20:47;;;;;;;2.45;1.60;;;;;;;9.01;44.46;100699.90;1736604;81;21814;-73
2021/04/28 08:23:16;;;;;;;2.60;1.75;;;;;;;8.99;42.63;100698.33;1748099;81;22512;-71
2021/04/28 08:25:44;;;;;;;4.12;2.00;;;;;;;8.95;44.11;100700.30;1686848;83;21200;-71
2021/04/28 08:28:11;;;;;;;2.75;2.20;;;;;;;8.95;44.57;100696.35;1726709;83;21122;-73
2021/04/28 08:30:39;;;;;;;3.50;2.25;;;;;;;8.94;44.35;100694.67;1719871;83;22142;-72
2021/04/28 08:33:08;;;;;;;2.75;1.60;;;;;;;8.92;43.82;100696.57;1691529;84;21086;-72
2021/04/28 08:35:36;;;;;;;5.05;3.58;;;;;;;8.97;45.06;100698.88;1717603;83;21186;-71
2021/04/28 08:38:05;;;;;;;7.65;5.42;;;;;;;9.06;44.17;100693.83;1688335;83;21221;-71
2021/04/28 08:40:33;;;;;;;7.72;6.40;;;;;;;9.10;46.40;100686.58;1700103;83;21440;-70
2021/04/28 08:43:01;;;;;;;8.53;6.20;;;;;;;9.16;47.39;100689.61;1695754;83;22045;-70
2021/04/28 08:45:29;;;;;;;7.53;4.50;;;;;;;9.18;47.93;100691.70;1710374;83;21112;-73
2021/04/28 08:47:57;;;;;;;6.58;4.15;;;;;;;9.23;46.36;100683.94;1711529;83;21134;-73
2021/04/28 08:50:24;;;;;;;8.43;4.47;;;;;;;9.22;44.91;100683.57;1724225;83;21078;-72
2021/04/28 08:52:52;;;;;;;6.42;3.65;;;;;;;9.15;45.48;100685.77;1712631;82;21137;-71
2021/04/28 08:55:19;;;;;;;5.83;3.92;;;;;;;9.08;44.64;100693.27;1711921;83;22094;-72
2021/04/28 08:57:47;;;;;;;9.00;4.40;;;;;;;8.96;44.15;100691.92;1667330;85;21201;-71
2021/04/28 09:00:18;;;;;;;8.50;4.75;;;;;;;8.98;46.25;100688.27;1707099;83;21388;-72
2021/04/28 09:02:56;;;;;;;6.75;5.08;;;;;;;9.11;46.83;100693.06;1707807;83;21780;-71
2021/04/28 09:05:38;;;;;;;11.35;5.03;;;;;;;9.34;46.71;100679.60;1849520;75;22817;-73
2021/04/28 09:08:09;;;;;;;8.08;4.40;;;;;;;9.53;47.09;100676.53;1815482;78;21131;-72
2021/04/28 09:10:39;;;;;;;5.83;4.90;;;;;;;9.75;46.53;100674.56;1833226;78;22439;-72
2021/04/28 09:13:11;;;;;;;7.12;4.67;;;;;;;9.98;46.36;100677.70;1832652;77;21543;-71
2021/04/28 09:15:41;;;;;;;6.53;4.62;;;;;;;10.24;45.98;100676.33;1795594;78;21079;-73
2021/04/28 09:18:14;;;;;;;7.03;4.40;;;;;;;10.53;46.14;100677.66;1824347;78;21060;-73
2021/04/28 09:21:00;;;;;;;7.37;5.10;;;;;;;10.81;46.53;100671.16;1782413;80;21148;-73
2021/04/28 09:23:54;;;;;;;7.15;4.62;;;;;;;11.10;44.85;100668.94;1863341;76;22684;-73
2021/04/28 09:26:42;;;;;;;8.38;4.35;;;;;;;11.16;44.24;100675.53;1713275;80;21380;-78
2021/04/28 09:29:33;;;;;;;8.25;5.00;;;;;;;11.42;44.94;100674.36;1839648;76;28344;-74
2021/04/28 09:32:06;;;;;;;6.42;4.50;;;;;;;11.58;43.14;100670.05;1815031;78;21151;-72
2021/04/28 09:34:38;;;;;;;7.22;4.33;;;;;;;11.71;43.12;100664.61;1836173;78;21968;-72
2021/04/28 09:37:14;;;;;;;5.85;3.92;;;;;;;11.74;41.63;100665.69;1829012;78;21067;-73
2021/04/28 09:39:46;;;;;;;5.75;3.65;;;;;;;11.80;40.99;100661.75;1819112;78;21131;-71
2021/04/28 09:42:16;;;;;;;7.90;3.37;;;;;;;11.82;39.72;100666.44;1831803;77;21102;-72
2021/04/28 09:44:51;;;;;;;6.78;3.10;;;;;;;11.80;40.07;100659.94;1809037;78;21106;-71
2021/04/28 09:47:22;;;;;;;9.70;3.90;;;;;;;11.91;40.03;100661.73;1809529;78;22987;-69
2021/04/28 09:49:57;;;;;;;5.83;3.98;;;;;;;12.10;41.09;100667.22;1780389;79;21163;-72
2021/04/28 09:52:42;;;;;;;4.97;3.42;;;;;;;12.27;39.46;100663.20;1818096;78;21115;-72
2021/04/28 09:55:14;;;;;;;8.10;4.35;;;;;;;12.29;40.02;100664.75;1821405;78;21060;-70
2021/04/28 09:57:44;;;;;;;7.42;4.30;;;;;;;12.44;40.08;100660.47;1816048;78;21482;-70
2021/04/28 10:00:20;;;;;;;7.85;4.35;;;;;;;12.54;38.99;100659.58;1825054;78;22052;-70
2021/04/28 10:03:03;;;;;;;6.47;4.40;;;;;;;12.49;36.59;100662.27;1820713;78;21108;-74
2021/04/28 10:05:36;;;;;;;9.75;4.97;;;;;;;12.48;38.92;100657.94;1815774;78;21245;-72
2021/04/28 10:08:11;;;;;;;8.25;4.55;;;;;;;12.70;39.35;100653.85;1831646;77;21127;-71
2021/04/28 10:10:40;;;;;;;5.83;4.15;;;;;;;12.90;38.65;100656.15;1826054;78;21112;-72
2021/04/28 10:13:10;;;;;;;9.00;7.28;;;;;;;13.07;38.08;100646.77;1823011;78;22073;-73
2021/04/28 10:15:37;;;;;;;9.45;7.00;;;;;;;13.15;37.43;100642.49;1815117;78;22263;-70
2021/04/28 10:18:11;;;;;;;10.63;5.05;;;;;;;13.12;36.07;100638.79;1824445;78;21167;-71
2021/04/28 10:20:42;;;;;;;8.55;5.42;;;;;;;13.06;38.00;100640.63;1819636;78;21143;-71
2021/04/28 10:23:12;;;;;;;8.53;5.28;;;;;;;13.23;39.21;100644.52;1817562;78;21237;-69
2021/04/28 10:25:39;;;;;;;9.43;5.87;;;;;;;13.43;38.63;100644.96;1816056;78;22117;-69
2021/04/28 10:28:09;;;;;;;8.98;5.95;;;;;;;13.58;37.29;100641.44;1830147;77;21186;-72
2021/04/28 10:30:44;;;;;;;12.40;7.00;;;;;;;13.60;36.30;100642.14;1823513;77;21158;-69
2021/04/28 10:33:23;;;;;;;11.48;6.22;;;;;;;13.59;35.97;100638.30;1828218;78;22745;-69
2021/04/28 10:35:51;;;;;;;10.78;6.45;;;;;;;13.56;36.52;100635.92;1840136;78;21095;-74
2021/04/28 10:38:24;;;;;;;12.70;7.62;;;;;;;13.63;37.83;100632.60;1826660;78;22092;-72
2021/04/28 10:40:51;;;;;;;15.30;8.15;;;;;;;13.77;36.13;100637.16;1806010;79;21200;-73
2021/04/28 10:43:20;;;;;;;15.93;8.78;;;;;;;13.77;35.76;100635.34;1805612;78;21185;-71
2021/04/28 10:45:48;;;;;;;14.25;7.25;;;;;;;13.78;35.90;100635.70;1806133;78;21186;-72
2021/04/28 10:48:21;;;;;;;12.40;6.90;;;;;;;13.92;36.38;100637.14;1804115;78;21191;-71
2021/04/28 10:50:49;;;;;;;16.05;8.08;;;;;;;14.11;36.83;100633.68;1809910;78;21868;-70
2021/04/28 10:53:22;;;;;;;15.32;6.58;;;;;;;14.26;34.92;100630.95;1807729;78;21071;-69
2021/04/28 10:55:57;;;;;;;13.28;6.70;;;;;;;14.31;35.18;100628.23;1810154;78;21170;-70
2021/04/28 10:58:37;;;;;;;12.75;6.65;;;;;;;14.30;34.75;100629.22;1796682;78;21207;-72
2021/04/28 11:01:13;;;;;;;12.23;6.50;;;;;;;14.33;34.42;100627.60;1819322;78;21127;-73
2021/04/28 11:03:46;;;;;;;10.18;5.78;;;;;;;14.32;34.07;100625.92;1810087;78;22044;-72
2021/04/28 11:06:25;;;;;;;11.15;6.20;;;;;;;14.48;35.27;100623.23;1807720;78;21370;-73
2021/04/28 11:09:06;;;;;;;10.10;6.42;;;;;;;14.68;34.60;100620.91;1807643;79;21549;-72
2021/04/28 11:11:39;;;;;;;8.53;5.22;;;;;;;14.85;35.22;100616.66;1809841;78;21202;-72
2021/04/28 11:16:52;;;;;;;6.95;4.17;;;;;;;15.06;33.31;100623.14;1812403;78;22485;-72
2021/04/28 11:19:28;;;;;;;9.50;4.60;;;;;;;15.21;33.14;100615.02;1810703;78;21037;-70
2021/04/28 11:22:11;;;;;;;6.58;4.37;;;;;;;15.38;33.01;100617.41;1813743;77;21345;-72
2021/04/28 11:24:59;;;;;;;7.83;4.30;;;;;;;15.50;32.86;100614.89;1811997;78;21096;-70
2021/04/28 11:27:58;;;;;;;10.08;4.37;;;;;;;15.51;31.13;100613.91;1828129;78;22512;-70
2021/04/28 11:30:36;;;;;;;7.37;4.47;;;;;;;15.27;31.89;100616.27;1822613;77;21875;-69
2021/04/28 11:33:25;;;;;;;8.75;3.85;;;;;;;15.18;31.66;100613.50;1832761;78;21123;-70
2021/04/28 11:35:58;;;;;;;6.10;3.55;;;;;;;15.38;32.84;100613.42;1821446;78;21100;-69
2021/04/28 11:38:30;;;;;;;6.60;4.20;;;;;;;15.68;30.48;100609.66;1838260;78;21332;-70
2021/04/28 11:41:14;;;;;;;6.85;3.95;;;;;;;15.71;32.74;100612.01;1821479;78;21076;-69
2021/04/28 11:43:58;;;;;;;4.47;3.25;;;;;;;15.89;32.37;100606.72;1833590;78;22043;-71
2021/04/28 11:46:31;;;;;;;9.80;5.80;;;;;;;15.88;30.09;100607.21;1818356;78;21104;-69
2021/04/28 11:49:00;;;;;;;6.87;3.90;;;;;;;15.87;31.21;100606.03;1816579;78;21053;-70
2021/04/28 11:51:31;;;;;;;5.75;3.80;;;;;;;15.99;31.89;100606.16;1816128;78;21055;-71
2021/04/28 11:54:05;;;;;;;8.95;4.62;;;;;;;16.21;31.19;100597.73;1833031;78;21048;-70